Latest Weather Observations for Kununurra Airport

IDW60801

Issued at 10:35 pm WST Wednesday 30 July 2014 (issued every 30 minutes, with the page automatically refreshed every 10 minutes)

About weather observations | Map of weather stations | Latest weather observations for WA | Other Formats
Station Details ID: 002056 Name: KUNUNURRA AERO Lat: -15.78 Lon: 128.71 Height: 44.0 m
Data from the previous 72 hours. | See also: Recent months at Kununurra Airport
Date/Time
WST
Temp
°C
App
Temp
°C
Dew
Point
Rel
Hum
%
Delta-T
°C
Wind Press
QNH
hPa
Press
MSL
hPa
Rain
since 9 am
mm
Dir
 
Spd
km/h
Gust
km/h
Spd
kts
Gust
kts
30/10:30pm 19.6 18.8 11.8 60 4.3 SSW 7 7 4 4 1015.5 - 0.0
30/10:00pm 18.8 19.8 13.1 69 3.2 SSW 0 0 0 0 1015.6 - 0.0
30/09:30pm 20.3 20.8 12.7 61 4.3 SSW 2 7 1 4 1015.7 - 0.0
30/09:00pm 19.4 20.2 12.6 64 3.8 CALM 0 0 0 0 1015.7 1015.6 0.0
30/08:30pm 20.8 21.8 13.3 62 4.3 CALM 0 0 0 0 1015.7 - 0.0
30/08:00pm 20.6 21.5 14.0 66 3.8 SSE 2 6 1 3 1015.7 - 0.0
30/07:30pm 21.6 21.0 11.6 53 5.6 SSW 6 7 3 4 1015.4 - 0.0
30/07:00pm 22.1 21.8 12.8 55 5.3 ESE 6 7 3 4 1015.2 - 0.0
30/06:30pm 23.1 22.9 13.0 53 5.8 ESE 6 7 3 4 1014.8 - 0.0
30/06:00pm 23.9 23.8 13.2 51 6.2 ESE 6 7 3 4 1014.6 1014.5 0.0
30/05:30pm 26.6 25.7 11.5 39 8.6 ESE 7 9 4 5 1014.3 - 0.0
30/05:00pm 29.6 27.1 6.5 23 12.3 E 9 11 5 6 1014.0 - 0.0
30/04:30pm 31.5 27.9 4.8 18 14.0 E 13 17 7 9 1013.7 - 0.0
30/04:00pm 32.1 28.8 4.3 17 14.5 SSE 11 15 6 8 1013.5 - 0.0
30/03:30pm 32.4 28.1 3.5 16 14.9 SE 15 19 8 10 1013.3 - 0.0
30/03:00pm 32.5 27.6 2.2 14 15.3 SE 17 20 9 11 1013.3 1013.2 0.0
30/02:30pm 32.5 28.4 2.2 14 15.3 E 13 22 7 12 1013.3 - 0.0
30/02:00pm 32.4 28.4 2.7 15 15.1 NE 13 20 7 11 1013.4 - 0.0
30/01:30pm 32.6 27.8 2.8 15 15.2 ENE 17 22 9 12 1013.8 - 0.0
30/01:00pm 32.5 27.9 3.7 16 14.9 NE 17 20 9 11 1014.2 - 0.0
30/12:30pm 32.4 26.4 3.1 15 15.0 ENE 24 30 13 16 1014.8 - 0.0
30/12:00pm 31.7 27.1 3.7 17 14.4 ESE 17 26 9 14 1015.4 1015.3 0.0
30/11:30am 32.2 26.9 3.0 15 14.9 E 20 33 11 18 1016.1 - 0.0
30/11:00am 31.1 25.5 3.5 17 14.1 E 22 30 12 16 1016.7 - 0.0
30/10:30am 30.6 26.1 4.2 18 13.6 ENE 17 24 9 13 1017.2 - 0.0
30/10:00am 30.7 24.8 4.1 18 13.7 E 24 32 13 17 1017.7 - 0.0
30/09:30am 29.7 24.3 2.6 17 13.5 ESE 20 24 11 13 1018.0 - 0.0
30/09:00am 28.8 23.5 2.1 18 13.1 SE 19 24 10 13 1018.3 1018.2 -
30/08:30am 27.4 23.5 3.6 21 11.9 S 13 17 7 9 1018.3 - -
30/08:00am 26.4 22.1 3.3 22 11.4 SSE 15 20 8 11 1018.3 - -
30/07:30am 24.9 22.4 6.6 31 9.5 SSE 9 13 5 7 1018.1 - -
30/07:00am 22.9 20.2 7.3 36 8.1 S 11 15 6 8 1017.8 - -
30/06:49am 21.8 19.3 8.0 41 7.2 S 11 13 6 7 1017.7 - -
30/06:30am 16.8 15.5 10.0 64 3.6 SSW 7 9 4 5 1017.6 - -
30/06:00am 15.4 15.5 10.3 71 2.7 CALM 0 0 0 0 1017.3 1017.2 -
30/05:30am 15.7 16.0 10.8 72 2.6 CALM 0 0 0 0 1017.0 - -
30/05:00am 15.2 15.5 10.9 75 2.3 CALM 0 0 0 0 1016.7 - -
30/04:30am 16.4 15.5 10.6 68 3.1 SSW 6 7 3 4 1016.5 - -
30/04:00am 16.9 15.5 9.6 62 3.8 SW 7 9 4 5 1016.5 - -
30/03:30am 17.1 16.3 9.7 61 3.9 SSW 4 7 2 4 1016.3 - -
30/03:00am 16.9 15.8 10.7 67 3.3 SW 7 9 4 5 1016.0 1015.9 -
30/02:30am 16.7 15.8 12.5 76 2.3 S 9 11 5 6 1015.9 - -
30/02:00am 17.4 17.9 12.7 74 2.6 S 2 7 1 4 1015.9 - -
30/01:30am 17.5 17.1 13.0 75 2.5 S 7 9 4 5 1015.9 - -
30/01:00am 18.4 18.0 12.5 68 3.3 S 6 9 3 5 1016.0 - -
30/12:30am 18.0 17.6 13.0 72 2.8 S 7 11 4 6 1016.1 - -
30/12:00am 18.6 18.7 13.9 74 2.7 SE 6 7 3 4 1016.2 1016.1 -
 
Date/Time
WST
Temp
°C
App
Temp
°C
Dew
Point
Rel
Hum
%
Delta-T
°C
Wind Press
QNH
hPa
Press
MSL
hPa
Rain
since 9 am
mm
Dir
 
Spd
km/h
Gust
km/h
Spd
kts
Gust
kts
29/11:30pm 19.1 18.9 13.7 71 3.1 SE 7 9 4 5 1016.3 - -
29/11:00pm 18.7 18.7 13.6 72 2.9 ESE 6 7 3 4 1016.3 - -
29/10:30pm 18.7 19.0 13.4 71 3.0 ESE 4 7 2 4 1016.2 - -
29/10:00pm 19.4 20.6 13.8 70 3.2 CALM 0 0 0 0 1016.2 - -
29/09:30pm 19.9 21.0 13.4 66 3.7 CALM 0 0 0 0 1016.3 - -
29/09:00pm 20.2 20.7 11.5 57 4.8 CALM 0 0 0 0 1016.3 1016.2 -
29/08:30pm 20.6 20.1 12.2 58 4.7 ESE 6 6 3 3 1016.3 - -
29/08:00pm 21.5 21.3 12.9 58 4.9 ESE 6 6 3 3 1016.3 - -
29/07:30pm 23.0 22.9 12.0 50 6.2 SE 4 6 2 3 1016.0 - -
29/07:00pm 23.6 22.2 12.2 48 6.5 E 11 11 6 6 1015.6 - -
29/06:30pm 23.3 22.4 12.7 51 6.1 E 9 9 5 5 1015.1 - -
29/06:00pm 27.0 25.1 8.9 32 9.9 ESE 9 11 5 6 1014.9 1014.8 -
29/05:30pm 28.3 26.0 8.9 29 10.7 E 11 11 6 6 1014.6 - -
29/05:00pm 30.2 27.4 7.0 23 12.5 E 11 17 6 9 1014.3 - -
29/04:30pm 31.8 28.1 6.3 20 13.7 E 15 22 8 12 1014.1 - -
29/04:00pm 32.4 28.6 5.6 18 14.3 E 15 20 8 11 1014.0 - -
29/03:30pm 32.8 29.6 6.7 19 14.2 ENE 13 20 7 11 1013.8 - -
29/03:00pm 32.7 29.4 6.5 19 14.2 E 13 19 7 10 1013.8 1013.7 -
29/02:30pm 32.9 29.1 5.9 18 14.5 SSE 15 20 8 11 1013.9 - -
29/02:20pm 33.1 - 6.0 18 14.6 - - - - - 1013.9 - -
29/06:30am 23.4 20.9 8.1 37 8.1 SSE 11 13 6 7 1017.8 - 0.0
29/06:00am 22.6 19.5 7.4 37 7.9 SSE 13 15 7 8 1017.6 1017.5 0.0
29/05:30am 22.7 20.3 7.0 36 8.1 SE 9 17 5 9 1017.3 - 0.0
29/05:00am 22.4 20.8 8.9 42 7.2 S 7 11 4 6 1017.0 - 0.0
29/04:30am 25.7 21.4 5.3 27 10.4 SE 17 26 9 14 1016.5 - 0.0
29/04:00am 24.0 21.1 6.6 32 9.0 SE 11 15 6 8 1016.3 - 0.0
29/03:30am 23.7 19.7 6.6 33 8.8 ESE 17 24 9 13 1016.1 - 0.0
29/03:00am 24.4 21.2 6.9 32 9.1 ESE 13 19 7 10 1015.8 1015.7 0.0
29/02:30am 24.7 21.1 6.9 32 9.3 ESE 15 19 8 10 1015.6 - 0.0
29/02:00am 25.2 21.3 7.1 31 9.5 ESE 17 22 9 12 1015.5 - 0.0
29/01:30am 26.4 22.7 6.5 28 10.4 SE 15 20 8 11 1015.4 - 0.0
29/01:00am 24.0 22.0 10.0 41 7.7 SE 11 15 6 8 1015.6 - 0.0
29/12:30am 21.1 20.8 13.4 61 4.4 SE 7 11 4 6 1015.8 - 0.0
29/12:00am 20.1 21.7 15.0 72 3.0 CALM 0 7 0 4 1016.0 1015.9 0.0
 
Date/Time
WST
Temp
°C
App
Temp
°C
Dew
Point
Rel
Hum
%
Delta-T
°C
Wind Press
QNH
hPa
Press
MSL
hPa
Rain
since 9 am
mm
Dir
 
Spd
km/h
Gust
km/h
Spd
kts
Gust
kts
28/11:30pm 20.3 21.9 15.0 71 3.1 CALM 0 0 0 0 1016.1 - 0.0
28/11:00pm 20.5 22.2 15.1 71 3.2 CALM 0 6 0 3 1016.1 - 0.0
28/10:30pm 20.3 21.3 13.3 64 4.0 CALM 0 0 0 0 1016.0 - 0.0
28/10:00pm 20.8 21.7 12.9 60 4.5 CALM 0 0 0 0 1016.2 - 0.0
28/09:30pm 20.5 21.6 13.5 64 4.0 CALM 0 0 0 0 1016.3 - 0.0
28/09:00pm 21.3 22.9 14.9 67 3.8 CALM 0 0 0 0 1016.3 1016.2 0.0
28/08:30pm 22.1 24.1 16.0 68 3.7 CALM 0 0 0 0 1016.3 - 0.0
28/08:00pm 23.1 24.9 15.4 62 4.6 CALM 0 0 0 0 1016.1 - 0.0
28/07:30pm 23.8 25.7 15.7 60 4.9 CALM 0 0 0 0 1015.9 - 0.0
28/07:00pm 23.9 26.1 16.4 63 4.6 CALM 0 0 0 0 1015.5 - 0.0
28/06:30pm 24.3 26.4 16.3 61 4.9 CALM 0 0 0 0 1015.1 - 0.0
28/06:00pm 25.4 26.9 15.7 55 5.9 S 2 6 1 3 1014.7 1014.6 0.0
28/05:30pm 28.4 27.5 12.7 38 9.2 SSE 9 9 5 5 1014.4 - 0.0
28/05:00pm 29.6 29.2 12.9 35 9.9 S 7 9 4 5 1014.1 - 0.0
28/04:30pm 31.4 30.4 10.2 27 12.1 SSE 6 7 3 4 1013.8 - 0.0
28/04:00pm 31.5 30.0 9.1 25 12.6 SSE 7 9 4 5 1013.7 - 0.0
28/03:30pm 31.7 31.2 9.4 25 12.6 SSE 2 7 1 4 1013.5 - 0.0
28/03:00pm 31.8 30.3 9.0 24 12.8 ESE 7 13 4 7 1013.3 1013.2 0.0
28/02:30pm 32.7 30.8 9.2 23 13.3 SSE 9 13 5 7 1013.6 - 0.0
28/02:00pm 31.5 28.7 8.5 24 12.8 SE 13 19 7 10 1013.9 - 0.0
28/01:30pm 31.2 29.4 9.6 26 12.2 SSE 9 19 5 10 1014.2 - 0.0
28/01:00pm 32.0 29.6 8.8 23 13.0 E 11 24 6 13 1014.8 - 0.0
28/12:30pm 31.9 29.0 8.0 22 13.2 SSE 13 24 7 13 1015.4 - 0.0
28/12:00pm 32.1 29.7 8.7 23 13.1 ESE 11 19 6 10 1016.0 1015.9 0.0
28/11:30am 31.4 28.3 7.4 22 13.1 SE 13 20 7 11 1016.5 - 0.0
28/11:00am 30.8 27.6 6.9 22 12.9 SE 13 22 7 12 1017.2 - 0.0
28/10:30am 29.5 25.4 6.0 22 12.4 SE 17 24 9 13 1017.8 - 0.0
28/10:00am 29.4 25.6 5.8 22 12.4 SE 15 19 8 10 1018.2 - 0.0
28/09:30am 29.1 25.3 5.9 23 12.2 SE 15 20 8 11 1018.5 - 0.0
28/09:00am 28.4 24.5 5.5 23 11.9 ESE 15 20 8 11 1018.7 1018.6 -
28/08:30am 27.4 23.5 5.2 24 11.4 SE 15 19 8 10 1018.7 - -
28/06:00am 25.3 23.2 6.7 30 9.7 ESE 7 11 4 6 1017.2 1017.1 -
28/05:49am 25.3 - 7.5 32 9.4 - - - - - 1017.1 - -
28/05:48am 25.4 - 7.4 31 9.5 - - - - - 1017.1 - -

Other Formats:

Comma delimited format used in spreadsheet applications
http://www.bom.gov.au/fwo/IDW60801/IDW60801.94216.axf

JavaScript Object Notation format (JSON) in row-major order
http://www.bom.gov.au/fwo/IDW60801/IDW60801.94216.json